createdAt,value
2022-12-18T00:01:58.000Z,-4.60
2022-12-18T00:04:25.398Z,-4.40
2022-12-18T00:06:52.132Z,-4.40
2022-12-18T00:09:19.040Z,-4.50
2022-12-18T00:11:45.661Z,-4.50
2022-12-18T00:14:12.878Z,-4.90
2022-12-18T00:16:40.174Z,-5.00
2022-12-18T00:19:07.094Z,-5.00
2022-12-18T00:21:33.841Z,-4.80
2022-12-18T00:24:00.823Z,-4.90
2022-12-18T00:26:29.667Z,-4.70
2022-12-18T00:29:00.878Z,-4.80
2022-12-18T00:31:27.658Z,-4.60
2022-12-18T00:33:55.519Z,-4.80
2022-12-18T00:36:27.079Z,-4.80
2022-12-18T00:38:57.595Z,-5.00
2022-12-18T00:41:42.880Z,-5.10
2022-12-18T00:44:10.833Z,-4.90
2022-12-18T00:46:37.467Z,-5.00
2022-12-18T00:49:04.504Z,-5.00
2022-12-18T00:51:31.506Z,-5.00
2022-12-18T00:53:58.159Z,-4.90
2022-12-18T00:56:25.158Z,-4.70
2022-12-18T00:58:53.191Z,-4.90
2022-12-18T01:01:20.083Z,-4.60
2022-12-18T01:03:47.596Z,-4.80
2022-12-18T01:06:15.061Z,-4.70
2022-12-18T01:08:41.778Z,-4.80
2022-12-18T01:11:09.781Z,-4.80
2022-12-18T01:13:36.868Z,-4.90
2022-12-18T01:16:03.998Z,-5.00
2022-12-18T01:18:30.823Z,-5.10
2022-12-18T01:20:59.413Z,-5.20
2022-12-18T01:23:26.193Z,-5.10
2022-12-18T01:25:52.832Z,-5.10
2022-12-18T01:28:19.542Z,-5.10
2022-12-18T01:30:46.166Z,-4.90
2022-12-18T01:33:13.069Z,-5.00
2022-12-18T01:35:43.288Z,-5.00
2022-12-18T01:38:10.181Z,-4.90
2022-12-18T01:40:37.156Z,-5.00
2022-12-18T01:43:03.855Z,-4.80
2022-12-18T01:45:31.879Z,-4.80
2022-12-18T01:48:04.105Z,-4.80
2022-12-18T01:50:39.283Z,-4.60
2022-12-18T01:53:09.486Z,-4.80
2022-12-18T01:55:39.425Z,-4.60
2022-12-18T01:58:06.196Z,-4.80
2022-12-18T02:00:33.072Z,-4.70
2022-12-18T02:02:59.812Z,-5.00
2022-12-18T02:05:29.314Z,-4.70
2022-12-18T02:08:08.353Z,-4.70
2022-12-18T02:10:48.022Z,-4.70
2022-12-18T02:13:29.940Z,-4.70
2022-12-18T02:15:59.618Z,-4.60
2022-12-18T02:18:29.994Z,-4.90
2022-12-18T02:21:15.664Z,-4.90
2022-12-18T02:23:42.431Z,-4.90
2022-12-18T02:26:21.179Z,-4.80
2022-12-18T02:28:57.378Z,-5.00
2022-12-18T02:31:27.833Z,-4.90
2022-12-18T02:33:56.201Z,-5.00
2022-12-18T02:36:23.702Z,-4.90
2022-12-18T02:38:51.278Z,-4.60
2022-12-18T02:41:18.827Z,-4.70
2022-12-18T02:43:57.310Z,-4.80
2022-12-18T02:46:28.436Z,-4.90
2022-12-18T02:49:01.529Z,-4.80
2022-12-18T02:51:32.255Z,-4.80
2022-12-18T02:54:10.212Z,-4.80
2022-12-18T02:56:42.602Z,-4.80
2022-12-18T02:59:12.268Z,-4.80
2022-12-18T03:02:06.862Z,-4.60
2022-12-18T03:04:38.097Z,-4.80
2022-12-18T03:07:08.041Z,-4.80
2022-12-18T03:09:37.474Z,-4.60
2022-12-18T03:12:25.483Z,-4.80
2022-12-18T03:14:57.989Z,-4.80
2022-12-18T03:17:26.122Z,-4.80
2022-12-18T03:19:53.938Z,-4.50
2022-12-18T03:22:21.754Z,-5.00
2022-12-18T03:24:52.524Z,-4.80
2022-12-18T03:27:21.628Z,-4.70
2022-12-18T03:30:03.768Z,-4.60
2022-12-18T03:32:31.971Z,-4.50
2022-12-18T03:35:02.521Z,-4.90
2022-12-18T03:37:32.669Z,-5.10
2022-12-18T03:40:00.109Z,-4.70
2022-12-18T03:42:38.424Z,-4.50
2022-12-18T03:45:09.968Z,-4.50
2022-12-18T03:47:44.881Z,-4.70
2022-12-18T03:50:21.743Z,-4.60
2022-12-18T03:52:55.795Z,-4.50
2022-12-18T03:55:24.004Z,-4.60
2022-12-18T03:57:57.340Z,-4.50
2022-12-18T04:00:25.333Z,-4.60
2022-12-18T04:03:01.629Z,-4.50
2022-12-18T04:05:35.896Z,-4.90
2022-12-18T04:08:02.921Z,-4.80
2022-12-18T04:10:31.024Z,-4.80
2022-12-18T04:12:58.786Z,-5.00
2022-12-18T04:15:27.252Z,-4.90
2022-12-18T04:17:53.927Z,-4.70
2022-12-18T04:20:23.888Z,-4.80
2022-12-18T04:22:50.620Z,-5.00
2022-12-18T04:25:19.354Z,-4.90
2022-12-18T04:28:06.065Z,-4.70
2022-12-18T04:30:33.755Z,-4.80
2022-12-18T04:33:00.451Z,-4.60
2022-12-18T04:35:29.158Z,-4.70
2022-12-18T04:37:56.527Z,-4.70
2022-12-18T04:40:23.185Z,-4.70
2022-12-18T04:42:50.491Z,-4.90
2022-12-18T04:45:17.194Z,-4.90
2022-12-18T04:47:43.848Z,-4.60
2022-12-18T04:50:10.567Z,-4.70
2022-12-18T04:52:37.248Z,-4.60
2022-12-18T04:55:04.229Z,-4.60
2022-12-18T04:57:30.850Z,-4.70
2022-12-18T04:59:57.492Z,-4.70
2022-12-18T05:02:24.292Z,-4.60
2022-12-18T05:04:50.980Z,-4.70
2022-12-18T05:07:17.587Z,-4.80
2022-12-18T05:09:44.394Z,-4.60
2022-12-18T05:12:11.827Z,-4.50
2022-12-18T05:14:38.443Z,-4.50
2022-12-18T05:17:05.061Z,-4.50
2022-12-18T05:19:31.672Z,-4.50
2022-12-18T05:21:58.526Z,-4.40
2022-12-18T05:24:25.240Z,-4.40
2022-12-18T05:26:51.939Z,-4.40
2022-12-18T05:29:18.571Z,-4.50
2022-12-18T05:31:45.225Z,-4.80
2022-12-18T05:34:12.135Z,-4.80
2022-12-18T05:36:39.628Z,-4.90
2022-12-18T05:39:07.104Z,-4.80
2022-12-18T05:41:33.855Z,-4.90
2022-12-18T05:44:00.572Z,-4.90
2022-12-18T05:46:27.369Z,-5.00
2022-12-18T05:48:54.074Z,-4.70
2022-12-18T05:51:21.947Z,-4.80
2022-12-18T05:53:49.152Z,-4.90
2022-12-18T05:56:17.472Z,-4.70
2022-12-18T05:58:44.445Z,-4.80
2022-12-18T06:01:12.742Z,-4.80
2022-12-18T06:03:39.896Z,-5.00
2022-12-18T06:06:17.032Z,-4.80
2022-12-18T06:08:46.484Z,-5.10
2022-12-18T06:11:14.191Z,-5.20
2022-12-18T06:13:41.167Z,-4.90
2022-12-18T06:16:08.153Z,-5.00
2022-12-18T06:18:34.893Z,-5.00
2022-12-18T06:21:01.534Z,-4.90
2022-12-18T06:23:28.419Z,-5.00
2022-12-18T06:25:56.770Z,-4.80
2022-12-18T06:28:23.508Z,-5.10
2022-12-18T06:30:50.339Z,-5.30
2022-12-18T06:33:17.155Z,-5.40
2022-12-18T06:35:43.847Z,-5.50
2022-12-18T06:38:10.528Z,-5.50
2022-12-18T06:40:38.335Z,-5.30
2022-12-18T06:43:31.602Z,-5.30
2022-12-18T06:46:01.569Z,-5.10
2022-12-18T06:48:28.440Z,-5.00
2022-12-18T06:50:55.376Z,-5.00
2022-12-18T06:53:22.114Z,-4.90
2022-12-18T06:55:49.816Z,-5.00
2022-12-18T06:58:16.531Z,-5.00
2022-12-18T07:00:43.134Z,-5.20
2022-12-18T07:03:11.546Z,-5.30
2022-12-18T07:05:41.821Z,-5.40
2022-12-18T07:08:08.469Z,-5.30
2022-12-18T07:10:46.282Z,-5.00
2022-12-18T07:13:14.191Z,-5.10
2022-12-18T07:15:41.206Z,-4.70
2022-12-18T07:18:07.835Z,-5.00
2022-12-18T07:20:34.479Z,-5.10
2022-12-18T07:23:02.812Z,-5.00
2022-12-18T07:25:29.422Z,-5.00
2022-12-18T07:27:56.028Z,-4.90
2022-12-18T07:30:22.628Z,-5.10
2022-12-18T07:32:56.826Z,-4.90
2022-12-18T07:35:25.136Z,-5.00
2022-12-18T07:37:52.207Z,-5.30
2022-12-18T07:40:18.807Z,-5.20
2022-12-18T07:42:45.444Z,-5.00
2022-12-18T07:45:12.111Z,-5.10
2022-12-18T07:47:38.734Z,-5.10
2022-12-18T07:50:06.271Z,-5.10
2022-12-18T07:52:32.893Z,-5.40
2022-12-18T07:55:00.011Z,-5.30
2022-12-18T07:57:49.543Z,-5.30
2022-12-18T08:00:13.563Z,-5.10
2022-12-18T08:02:40.300Z,-4.70
2022-12-18T08:05:07.158Z,-4.80
2022-12-18T08:07:33.767Z,-5.10
2022-12-18T08:10:00.390Z,-5.30
2022-12-18T08:12:26.996Z,-5.10
2022-12-18T08:14:53.594Z,-5.10
2022-12-18T08:17:20.947Z,-5.20
2022-12-18T08:19:47.569Z,-5.30
2022-12-18T08:22:14.171Z,-4.90
2022-12-18T08:24:40.803Z,-4.90
2022-12-18T08:27:28.421Z,-4.80
2022-12-18T08:29:54.037Z,-5.10
2022-12-18T08:32:20.996Z,-5.00
2022-12-18T08:34:47.657Z,-5.00
2022-12-18T08:37:14.283Z,-4.90
2022-12-18T08:39:40.883Z,-5.00
2022-12-18T08:42:39.925Z,-5.00
2022-12-18T08:45:06.797Z,-5.00
2022-12-18T08:47:33.430Z,-5.00
2022-12-18T08:50:00.071Z,-5.00
2022-12-18T08:52:26.925Z,-4.90
2022-12-18T08:54:53.557Z,-4.90
2022-12-18T08:57:20.131Z,-4.90
2022-12-18T08:59:46.775Z,-5.00
2022-12-18T09:02:13.568Z,-5.00
2022-12-18T09:04:40.873Z,-5.10
2022-12-18T09:07:07.608Z,-5.00
2022-12-18T09:09:34.380Z,-5.10
2022-12-18T09:12:00.996Z,-4.90
2022-12-18T09:14:27.644Z,-4.80
2022-12-18T09:16:54.273Z,-5.10
2022-12-18T09:19:21.046Z,-4.80
2022-12-18T09:21:48.405Z,-4.80
2022-12-18T09:24:15.448Z,-4.90
2022-12-18T09:26:43.346Z,-4.90
2022-12-18T09:29:14.467Z,-5.00
2022-12-18T09:31:41.528Z,-4.80
2022-12-18T09:34:08.272Z,-4.80
2022-12-18T09:36:34.889Z,-5.10
2022-12-18T09:39:06.337Z,-4.90
2022-12-18T09:41:40.064Z,-4.90
2022-12-18T09:44:12.725Z,-4.60
2022-12-18T09:46:41.411Z,-4.40
2022-12-18T09:49:12.909Z,-4.60
2022-12-18T09:51:51.940Z,-5.00
2022-12-18T09:54:34.013Z,-4.90
2022-12-18T09:57:00.629Z,-4.70
2022-12-18T09:59:34.366Z,-4.40
2022-12-18T10:02:01.331Z,-4.70
2022-12-18T10:04:31.469Z,-4.80
2022-12-18T10:07:09.542Z,-4.70
2022-12-18T10:09:43.121Z,-4.90
2022-12-18T10:12:32.987Z,-4.70
2022-12-18T10:15:18.576Z,-4.90
2022-12-18T10:17:45.180Z,-5.00
2022-12-18T10:20:18.748Z,-4.70
2022-12-18T10:23:00.959Z,-4.50
2022-12-18T10:25:44.542Z,-4.50
2022-12-18T10:28:13.578Z,-4.60
2022-12-18T10:30:40.471Z,-4.80
2022-12-18T10:33:11.258Z,-4.50
2022-12-18T10:35:41.117Z,-4.70
2022-12-18T10:38:13.808Z,-4.80
2022-12-18T10:40:51.710Z,-4.60
2022-12-18T10:43:23.899Z,-5.00
2022-12-18T10:45:59.105Z,-4.70
2022-12-18T10:48:25.800Z,-4.40
2022-12-18T10:53:41.073Z,-4.50
2022-12-18T10:56:07.941Z,-4.60
2022-12-18T10:58:35.635Z,-4.50
2022-12-18T11:01:05.074Z,-4.30
2022-12-18T11:03:37.996Z,-4.40
2022-12-18T11:06:05.212Z,-4.40
2022-12-18T11:08:31.873Z,-4.20
2022-12-18T11:10:58.514Z,-4.30
2022-12-18T11:13:26.733Z,-4.10
2022-12-18T11:15:53.547Z,-4.30
2022-12-18T11:18:27.151Z,-4.20
2022-12-18T11:20:58.680Z,-4.20
2022-12-18T11:23:26.505Z,-4.20
2022-12-18T11:25:57.798Z,-4.10
2022-12-18T11:28:38.418Z,-4.10
2022-12-18T11:31:19.552Z,-4.20
2022-12-18T11:34:26.908Z,-4.10
2022-12-18T11:36:48.740Z,-3.90
2022-12-18T11:39:34.388Z,-4.00
2022-12-18T11:42:12.686Z,-3.90
2022-12-18T11:44:59.279Z,-4.10
2022-12-18T11:47:30.783Z,-4.30
2022-12-18T11:50:00.460Z,-4.30
2022-12-18T11:52:29.306Z,-4.10
2022-12-18T11:54:58.984Z,-4.20
2022-12-18T11:57:44.362Z,-4.20
2022-12-18T12:00:14.111Z,-4.40
2022-12-18T12:02:40.994Z,-4.60
2022-12-18T12:05:25.975Z,-4.30
2022-12-18T12:07:57.612Z,-4.10
2022-12-18T12:10:35.008Z,-4.10
2022-12-18T12:13:04.583Z,-4.10
2022-12-18T12:15:45.512Z,-4.20
2022-12-18T12:18:12.113Z,-4.20
2022-12-18T12:20:38.733Z,-4.00
2022-12-18T12:23:14.451Z,-4.20
2022-12-18T12:25:43.469Z,-4.20
2022-12-18T12:28:24.950Z,-4.10
2022-12-18T12:30:57.728Z,-4.10
2022-12-18T12:33:37.218Z,-4.00
2022-12-18T12:36:11.998Z,-4.10
2022-12-18T12:38:49.853Z,-4.60
2022-12-18T12:41:39.225Z,-4.40
2022-12-18T12:44:08.412Z,-4.20
2022-12-18T12:46:37.301Z,-4.30
2022-12-18T12:49:05.216Z,-4.30
2022-12-18T12:51:36.366Z,-4.40
2022-12-18T12:54:05.187Z,-4.60
2022-12-18T12:56:39.784Z,-4.50
2022-12-18T12:59:25.369Z,-4.50
2022-12-18T13:02:10.887Z,-4.50
2022-12-18T13:04:47.540Z,-4.30
2022-12-18T13:07:21.178Z,-4.20
2022-12-18T13:10:07.278Z,-4.10
2022-12-18T13:12:53.079Z,-4.50
2022-12-18T13:15:36.711Z,-4.40
2022-12-18T13:18:11.825Z,-4.20
2022-12-18T13:20:44.712Z,-3.80
2022-12-18T13:23:25.395Z,-4.10
2022-12-18T13:25:53.986Z,-4.30
2022-12-18T13:28:39.650Z,-4.60
2022-12-18T13:31:06.243Z,-4.00
2022-12-18T13:34:16.434Z,-4.30
2022-12-18T13:36:32.077Z,-4.50
2022-12-18T13:39:16.450Z,-4.10
2022-12-18T13:41:47.810Z,-4.20
2022-12-18T13:44:38.548Z,-3.70
2022-12-18T13:47:26.313Z,-3.90
2022-12-18T13:49:53.525Z,-3.90
2022-12-18T13:52:22.221Z,-4.00
2022-12-18T13:54:53.241Z,-4.00
2022-12-18T13:57:31.331Z,-4.20
2022-12-18T13:59:59.354Z,-4.50
2022-12-18T14:02:27.275Z,-4.50
2022-12-18T14:04:54.537Z,-4.70
2022-12-18T14:07:26.045Z,-4.60
2022-12-18T14:10:01.915Z,-4.40
2022-12-18T14:12:52.651Z,-4.30
2022-12-18T14:15:28.115Z,-4.60
2022-12-18T14:18:03.463Z,-4.50
2022-12-18T14:20:33.747Z,-4.80
2022-12-18T14:23:01.155Z,-5.10
2022-12-18T14:25:29.800Z,-5.20
2022-12-18T14:28:08.711Z,-4.80
2022-12-18T14:30:45.261Z,-5.00
2022-12-18T14:33:13.368Z,-5.30
2022-12-18T14:35:42.068Z,-5.00
2022-12-18T14:38:28.418Z,-5.10
2022-12-18T14:40:59.181Z,-5.00
2022-12-18T14:43:26.602Z,-4.70
2022-12-18T14:45:53.492Z,-4.80
2022-12-18T14:48:32.227Z,-4.70
2022-12-18T14:51:03.571Z,-4.70
2022-12-18T14:53:33.023Z,-5.00
2022-12-18T14:55:59.656Z,-5.00
2022-12-18T14:58:26.312Z,-5.30
2022-12-18T15:00:53.997Z,-5.00
2022-12-18T15:03:22.314Z,-5.10
2022-12-18T15:05:49.882Z,-5.30
2022-12-18T15:08:35.573Z,-5.20
2022-12-18T15:11:02.245Z,-5.30
2022-12-18T15:13:29.758Z,-5.10
2022-12-18T15:15:58.612Z,-5.30
2022-12-18T15:18:30.695Z,-5.30
2022-12-18T15:21:07.839Z,-5.20
2022-12-18T15:23:50.698Z,-5.10
2022-12-18T15:26:18.592Z,-5.00
2022-12-18T15:28:52.890Z,-5.00
2022-12-18T15:31:23.573Z,-5.00
2022-12-18T15:33:53.747Z,-5.00
2022-12-18T15:36:26.379Z,-5.00
2022-12-18T15:38:54.571Z,-5.00
2022-12-18T15:41:24.897Z,-5.10
2022-12-18T15:43:53.144Z,-5.20
2022-12-18T15:46:21.104Z,-4.90
2022-12-18T15:48:55.407Z,-4.90
2022-12-18T15:51:29.480Z,-5.10
2022-12-18T15:53:57.350Z,-5.10
2022-12-18T15:56:43.227Z,-5.20
2022-12-18T15:59:11.940Z,-5.30
2022-12-18T16:01:42.482Z,-5.30
2022-12-18T16:04:11.648Z,-5.30
2022-12-18T16:07:05.398Z,-5.30
2022-12-18T16:09:26.373Z,-5.40
2022-12-18T16:11:53.308Z,-5.50
2022-12-18T16:14:21.573Z,-5.40
2022-12-18T16:16:52.886Z,-5.40
2022-12-18T16:19:19.879Z,-5.30
2022-12-18T16:21:47.015Z,-5.30
2022-12-18T16:24:22.792Z,-5.40
2022-12-18T16:26:49.919Z,-5.30
2022-12-18T16:29:16.979Z,-5.30
2022-12-18T16:31:43.575Z,-5.30
2022-12-18T16:34:22.928Z,-5.30
2022-12-18T16:36:51.653Z,-5.20
2022-12-18T16:39:18.629Z,-5.30
2022-12-18T16:41:45.224Z,-5.10
2022-12-18T16:44:12.338Z,-5.30
2022-12-18T16:46:40.011Z,-5.30
2022-12-18T16:49:06.760Z,-5.40
2022-12-18T16:51:33.354Z,-5.30
2022-12-18T16:53:59.969Z,-5.40
2022-12-18T16:56:26.753Z,-5.40
2022-12-18T16:58:54.348Z,-5.40
2022-12-18T17:01:21.714Z,-5.10
2022-12-18T17:03:55.471Z,-5.20
2022-12-18T17:06:22.612Z,-5.10
2022-12-18T17:08:54.721Z,-4.90
2022-12-18T17:11:21.498Z,-5.00
2022-12-18T17:13:48.226Z,-5.30
2022-12-18T17:16:14.884Z,-5.30
2022-12-18T17:18:41.700Z,-5.30
2022-12-18T17:21:09.690Z,-5.30
2022-12-18T17:23:37.335Z,-5.40
2022-12-18T17:26:07.097Z,-5.20
2022-12-18T17:28:34.258Z,-5.40
2022-12-18T17:31:01.425Z,-5.50
2022-12-18T17:33:28.337Z,-5.40
2022-12-18T17:35:58.256Z,-5.30
2022-12-18T17:38:24.853Z,-5.20
2022-12-18T17:40:51.481Z,-5.30
2022-12-18T17:43:18.074Z,-5.30
2022-12-18T17:45:44.679Z,-5.40
2022-12-18T17:48:11.305Z,-5.40
2022-12-18T17:50:38.099Z,-5.40
2022-12-18T17:53:04.759Z,-5.40
2022-12-18T17:55:31.464Z,-5.50
2022-12-18T17:57:58.540Z,-5.60
2022-12-18T18:00:25.311Z,-5.60
2022-12-18T18:02:52.485Z,-5.50
2022-12-18T18:05:19.341Z,-5.60
2022-12-18T18:07:46.060Z,-5.50
2022-12-18T18:10:14.050Z,-5.50
2022-12-18T18:13:00.775Z,-5.60
2022-12-18T18:15:27.479Z,-5.30
2022-12-18T18:17:54.097Z,-5.40
2022-12-18T18:20:22.776Z,-5.50
2022-12-18T18:22:49.609Z,-5.60
2022-12-18T18:25:17.000Z,-5.60
2022-12-18T18:27:44.719Z,-5.50
2022-12-18T18:30:14.165Z,-5.70
2022-12-18T18:32:40.841Z,-5.40
2022-12-18T18:35:19.361Z,-5.40
2022-12-18T18:37:54.949Z,-5.50
2022-12-18T18:40:21.624Z,-5.50
2022-12-18T18:42:48.297Z,-5.50
2022-12-18T18:45:15.028Z,-5.50
2022-12-18T18:47:41.636Z,-5.50
2022-12-18T18:50:08.436Z,-5.50
2022-12-18T18:52:35.056Z,-5.80
2022-12-18T18:55:13.280Z,-5.60
2022-12-18T18:57:40.524Z,-5.70
2022-12-18T19:00:07.719Z,-5.90
2022-12-18T19:02:34.656Z,-5.80
2022-12-18T19:05:01.379Z,-5.80
2022-12-18T19:07:30.523Z,-5.90
2022-12-18T19:10:01.525Z,-5.70
2022-12-18T19:12:49.718Z,-5.70
2022-12-18T19:15:16.339Z,-5.80
2022-12-18T19:17:43.212Z,-5.70
2022-12-18T19:20:13.976Z,-5.80
2022-12-18T19:22:40.603Z,-5.80
2022-12-18T19:25:07.708Z,-5.70
2022-12-18T19:27:38.432Z,-5.90
2022-12-18T19:30:05.251Z,-5.80
2022-12-18T19:32:32.097Z,-5.60
2022-12-18T19:34:59.042Z,-5.70
2022-12-18T19:37:25.859Z,-5.50
2022-12-18T19:39:52.942Z,-5.60
2022-12-18T19:42:25.495Z,-5.70
2022-12-18T19:44:54.897Z,-5.60
2022-12-18T19:47:21.540Z,-5.70
2022-12-18T19:49:48.187Z,-5.70
2022-12-18T19:52:16.169Z,-5.60
2022-12-18T19:54:42.793Z,-5.80
2022-12-18T19:57:11.455Z,-5.80
2022-12-18T19:59:38.931Z,-5.70
2022-12-18T20:02:05.958Z,-5.70
2022-12-18T20:04:32.755Z,-5.70
2022-12-18T20:06:59.418Z,-5.50
2022-12-18T20:09:26.294Z,-5.30
2022-12-18T20:11:53.109Z,-5.70
2022-12-18T20:14:23.476Z,-5.60
2022-12-18T20:16:51.189Z,-5.60
2022-12-18T20:19:18.391Z,-5.80
2022-12-18T20:21:45.847Z,-5.70
2022-12-18T20:24:12.923Z,-5.60
2022-12-18T20:26:40.432Z,-5.80
2022-12-18T20:29:07.043Z,-5.50
2022-12-18T20:31:33.750Z,-5.70
2022-12-18T20:34:01.769Z,-5.90
2022-12-18T20:36:30.754Z,-5.70
2022-12-18T20:39:00.373Z,-5.50
2022-12-18T20:41:38.359Z,-5.70
2022-12-18T20:44:22.004Z,-5.60
2022-12-18T20:46:57.368Z,-5.50
2022-12-18T20:49:24.740Z,-5.30
2022-12-18T20:51:52.428Z,-5.30
2022-12-18T20:54:19.211Z,-5.80
2022-12-18T20:56:45.818Z,-5.80
2022-12-18T20:59:12.871Z,-5.80
2022-12-18T21:01:40.057Z,-5.90
2022-12-18T21:04:12.194Z,-5.70
2022-12-18T21:06:39.026Z,-5.60
2022-12-18T21:09:05.792Z,-5.40
2022-12-18T21:11:51.467Z,-5.40
2022-12-18T21:14:19.794Z,-5.50
2022-12-18T21:16:46.955Z,-5.20
2022-12-18T21:19:14.807Z,-5.60
2022-12-18T21:21:42.584Z,-5.70
2022-12-18T21:24:12.209Z,-5.40
2022-12-18T21:26:45.519Z,-5.50
2022-12-18T21:29:14.450Z,-5.60
2022-12-18T21:31:41.307Z,-5.50
2022-12-18T21:34:08.453Z,-5.70
2022-12-18T21:36:35.340Z,-5.40
2022-12-18T21:39:02.041Z,-5.40
2022-12-18T21:41:47.816Z,-5.50
2022-12-18T21:44:15.757Z,-5.60
2022-12-18T21:46:51.349Z,-5.60
2022-12-18T21:49:21.844Z,-5.70
2022-12-18T21:51:52.666Z,-5.80
2022-12-18T21:54:19.650Z,-5.40
2022-12-18T21:56:46.211Z,-5.50
2022-12-18T21:59:14.631Z,-5.80
2022-12-18T22:01:41.454Z,-5.70
2022-12-18T22:04:08.357Z,-5.40
2022-12-18T22:06:35.004Z,-5.80
2022-12-18T22:09:01.635Z,-5.50
2022-12-18T22:11:28.324Z,-5.60
2022-12-18T22:13:54.947Z,-5.90
2022-12-18T22:16:21.627Z,-5.90
2022-12-18T22:18:48.487Z,-6.00
2022-12-18T22:21:29.286Z,-5.50
2022-12-18T22:24:00.567Z,-5.30
2022-12-18T22:26:28.728Z,-5.60
2022-12-18T22:29:14.336Z,-5.60
2022-12-18T22:31:41.208Z,-5.70
2022-12-18T22:34:07.979Z,-5.60
2022-12-18T22:36:39.443Z,-5.80
2022-12-18T22:39:17.033Z,-5.40
2022-12-18T22:41:44.400Z,-5.10
2022-12-18T22:44:11.365Z,-5.50
2022-12-18T22:46:43.136Z,-5.70
2022-12-18T22:49:12.604Z,-5.60
2022-12-18T22:51:39.249Z,-5.30
2022-12-18T22:54:06.062Z,-5.40
2022-12-18T22:56:32.752Z,-5.60
2022-12-18T22:58:59.382Z,-5.60
2022-12-18T23:01:27.320Z,-5.40
2022-12-18T23:03:54.499Z,-5.20
2022-12-18T23:06:22.208Z,-5.50
2022-12-18T23:08:54.387Z,-5.60
2022-12-18T23:11:22.561Z,-5.50
2022-12-18T23:13:49.168Z,-5.40
2022-12-18T23:16:16.696Z,-5.50
2022-12-18T23:18:43.830Z,-5.60
2022-12-18T23:21:14.688Z,-5.60
2022-12-18T23:23:42.719Z,-5.60
2022-12-18T23:26:13.554Z,-5.60
2022-12-18T23:28:40.292Z,-5.60
2022-12-18T23:31:08.363Z,-5.50
2022-12-18T23:33:34.995Z,-5.60
2022-12-18T23:36:02.187Z,-5.30
2022-12-18T23:38:29.029Z,-5.50
2022-12-18T23:40:56.860Z,-5.40
2022-12-18T23:43:24.586Z,-5.40
2022-12-18T23:45:55.645Z,-5.30
2022-12-18T23:48:22.775Z,-5.40
2022-12-18T23:50:49.401Z,-5.30
2022-12-18T23:53:15.994Z,-5.20
2022-12-18T23:55:43.487Z,-5.30
2022-12-18T23:58:17.930Z,-5.60
